createdAt,value
2023-05-31T00:00:31.018Z,9.30
2023-05-31T00:05:32.468Z,9.19
2023-05-31T00:10:33.967Z,9.15
2023-05-31T00:15:35.428Z,9.16
2023-05-31T00:20:37.201Z,9.12
2023-05-31T00:25:39.631Z,9.13
2023-05-31T00:30:41.473Z,9.07
2023-05-31T00:35:42.953Z,8.98
2023-05-31T00:40:45.715Z,8.83
2023-05-31T00:45:47.180Z,8.67
2023-05-31T00:50:50.333Z,8.64
2023-05-31T00:55:53.215Z,8.67
2023-05-31T01:00:55.930Z,8.68
2023-05-31T01:05:57.393Z,8.92
2023-05-31T01:11:07.989Z,9.15
2023-05-31T01:16:27.309Z,9.24
2023-05-31T01:21:52.628Z,9.27
2023-05-31T01:26:56.092Z,9.26
2023-05-31T01:31:59.394Z,9.19
2023-05-31T01:37:00.913Z,8.90
2023-05-31T01:42:03.844Z,8.71
2023-05-31T01:47:08.750Z,8.58
2023-05-31T01:52:14.822Z,8.34
2023-05-31T01:57:18.233Z,8.10
2023-05-31T02:02:20.939Z,8.08
2023-05-31T02:07:22.489Z,7.82
2023-05-31T02:12:24.028Z,7.74
2023-05-31T02:17:25.578Z,7.67
2023-05-31T02:22:27.066Z,7.53
2023-05-31T02:27:30.281Z,7.62
2023-05-31T02:32:35.282Z,7.63
2023-05-31T02:37:39.035Z,7.47
2023-05-31T02:42:42.021Z,7.46
2023-05-31T02:47:43.621Z,7.47
2023-05-31T02:52:45.162Z,7.40
2023-05-31T02:58:07.026Z,7.42
2023-05-31T03:03:11.009Z,7.33
2023-05-31T03:08:31.646Z,7.22
2023-05-31T03:13:33.729Z,7.16
2023-05-31T03:18:35.557Z,7.12
2023-05-31T03:23:37.957Z,7.15
2023-05-31T03:28:39.518Z,7.26
2023-05-31T03:33:41.059Z,7.33
2023-05-31T03:38:42.679Z,7.42
2023-05-31T03:43:44.355Z,7.49
2023-05-31T03:48:47.179Z,7.42
2023-05-31T03:53:48.710Z,7.37
2023-05-31T03:58:50.259Z,7.47
2023-05-31T04:03:52.393Z,7.58
2023-05-31T04:08:53.983Z,7.73
2023-05-31T04:13:55.545Z,7.82
2023-05-31T04:18:58.887Z,7.97
2023-05-31T04:24:00.490Z,8.10
2023-05-31T04:29:02.248Z,8.19
2023-05-31T04:34:04.736Z,8.34
2023-05-31T04:39:10.098Z,8.55
2023-05-31T04:44:12.640Z,8.82
2023-05-31T04:49:14.126Z,9.06
2023-05-31T04:54:15.758Z,9.33
2023-05-31T04:59:17.281Z,9.83
2023-05-31T05:04:19.816Z,10.08
2023-05-31T05:09:23.797Z,10.41
2023-05-31T05:14:25.823Z,12.76
2023-05-31T05:19:27.456Z,15.42
2023-05-31T05:24:28.983Z,16.66
2023-05-31T05:29:30.681Z,17.46
2023-05-31T05:34:32.191Z,18.82
2023-05-31T05:39:33.959Z,19.35
2023-05-31T05:44:35.537Z,19.21
2023-05-31T05:49:38.353Z,19.91
2023-05-31T05:54:42.079Z,19.62
2023-05-31T05:59:44.726Z,20.02
2023-05-31T06:04:56.793Z,20.64
2023-05-31T06:09:58.365Z,21.81
2023-05-31T06:15:00.023Z,22.71
2023-05-31T06:20:02.640Z,23.54
2023-05-31T06:25:04.568Z,23.17
2023-05-31T06:30:08.803Z,21.77
2023-05-31T06:35:16.519Z,21.36
2023-05-31T06:40:19.481Z,21.35
2023-05-31T06:45:21.057Z,22.45
2023-05-31T06:50:25.168Z,23.66
2023-05-31T06:55:27.103Z,23.38
2023-05-31T07:00:29.281Z,23.66
2023-05-31T07:05:30.864Z,23.17
2023-05-31T07:10:33.640Z,23.08
2023-05-31T07:15:35.394Z,22.96
2023-05-31T07:20:37.006Z,23.46
2023-05-31T07:25:38.540Z,24.04
2023-05-31T07:30:40.019Z,23.55
2023-05-31T07:35:43.066Z,23.50
2023-05-31T07:40:44.545Z,23.53
2023-05-31T07:45:46.067Z,23.53
2023-05-31T07:50:48.164Z,22.95
2023-05-31T07:55:49.665Z,22.40
2023-05-31T08:00:51.107Z,21.54
2023-05-31T08:05:53.988Z,21.13
2023-05-31T08:10:55.667Z,22.08
2023-05-31T08:15:57.163Z,21.72
2023-05-31T08:20:58.812Z,21.54
2023-05-31T08:26:00.489Z,21.31
2023-05-31T08:31:02.018Z,21.92
2023-05-31T08:36:03.537Z,23.60
2023-05-31T08:41:05.547Z,23.08
2023-05-31T08:46:08.947Z,23.91
2023-05-31T08:51:12.847Z,23.97
2023-05-31T08:56:14.971Z,23.79
2023-05-31T09:01:21.230Z,23.63
2023-05-31T09:06:22.934Z,23.86
2023-05-31T09:11:24.483Z,23.83
2023-05-31T09:16:26.189Z,23.93
2023-05-31T09:21:27.800Z,23.06
2023-05-31T09:26:29.343Z,22.95
2023-05-31T09:31:31.313Z,22.25
2023-05-31T09:36:33.065Z,21.54
2023-05-31T09:41:35.096Z,22.51
2023-05-31T09:46:38.016Z,22.45
2023-05-31T09:51:40.304Z,23.03
2023-05-31T09:56:42.161Z,23.16
2023-05-31T10:01:44.621Z,23.41
2023-05-31T10:06:47.230Z,23.41
2023-05-31T10:11:52.040Z,23.29
2023-05-31T10:16:55.882Z,22.65
2023-05-31T10:21:59.699Z,21.94
2023-05-31T10:27:12.668Z,22.91
2023-05-31T10:32:21.830Z,23.08
2023-05-31T10:37:23.980Z,22.33
2023-05-31T10:42:47.336Z,22.14
2023-05-31T10:48:13.584Z,21.54
2023-05-31T10:53:15.165Z,21.40
2023-05-31T10:58:39.292Z,21.34
2023-05-31T11:03:54.147Z,22.99
2023-05-31T11:09:25.273Z,23.51
2023-05-31T11:14:28.750Z,22.85
2023-05-31T11:19:32.232Z,22.95
2023-05-31T11:24:40.643Z,22.65
2023-05-31T11:29:44.823Z,23.61
2023-05-31T11:34:53.521Z,23.61
2023-05-31T11:39:58.546Z,22.78
2023-05-31T11:45:18.210Z,22.36
2023-05-31T11:50:20.343Z,22.38
2023-05-31T11:55:22.118Z,22.45
2023-05-31T12:00:23.591Z,22.30
2023-05-31T12:05:25.356Z,21.71
2023-05-31T12:10:32.118Z,21.98
2023-05-31T12:15:33.609Z,22.21
2023-05-31T12:20:35.309Z,21.80
2023-05-31T12:25:36.781Z,21.57
2023-05-31T12:30:48.729Z,21.23
2023-05-31T12:35:50.457Z,22.04
2023-05-31T12:40:53.704Z,22.29
2023-05-31T12:45:55.333Z,22.74
2023-05-31T12:50:58.335Z,22.84
2023-05-31T12:55:59.813Z,22.81
2023-05-31T13:01:01.505Z,22.33
2023-05-31T13:06:03.629Z,21.89
2023-05-31T13:11:05.151Z,22.42
2023-05-31T13:16:06.805Z,22.60
2023-05-31T13:21:08.323Z,22.71
2023-05-31T13:26:10.021Z,23.04
2023-05-31T13:31:11.726Z,22.61
2023-05-31T13:36:13.661Z,22.77
2023-05-31T13:41:15.101Z,22.60
2023-05-31T13:46:16.670Z,22.22
2023-05-31T13:51:18.312Z,21.71
2023-05-31T13:56:19.778Z,21.71
2023-05-31T14:01:21.266Z,21.85
2023-05-31T14:06:22.760Z,21.57
2023-05-31T14:11:24.225Z,21.77
2023-05-31T14:16:25.719Z,21.44
2023-05-31T14:21:27.313Z,21.15
2023-05-31T14:26:28.877Z,21.38
2023-05-31T14:31:30.553Z,21.15
2023-05-31T14:36:32.052Z,21.25
2023-05-31T14:41:33.820Z,21.09
2023-05-31T14:46:35.374Z,21.11
2023-05-31T14:51:36.858Z,20.96
2023-05-31T14:56:38.328Z,20.87
2023-05-31T15:01:40.338Z,20.54
2023-05-31T15:06:43.164Z,20.29
2023-05-31T15:11:44.628Z,20.11
2023-05-31T15:16:46.101Z,20.01
2023-05-31T15:21:47.640Z,20.05
2023-05-31T15:26:49.883Z,19.83
2023-05-31T15:31:52.763Z,19.62
2023-05-31T15:36:54.290Z,19.37
2023-05-31T15:41:55.762Z,19.33
2023-05-31T15:46:57.283Z,19.13
2023-05-31T15:51:58.816Z,18.96
2023-05-31T15:57:00.298Z,18.85
2023-05-31T16:02:02.091Z,18.78
2023-05-31T16:07:03.624Z,18.41
2023-05-31T16:12:05.749Z,18.30
2023-05-31T16:17:07.351Z,18.15
2023-05-31T16:22:08.947Z,17.97
2023-05-31T16:27:10.518Z,17.89
2023-05-31T16:32:11.998Z,17.76
2023-05-31T16:37:13.460Z,17.68
2023-05-31T16:42:15.002Z,17.49
2023-05-31T16:47:16.548Z,17.43
2023-05-31T16:52:18.012Z,17.49
2023-05-31T16:57:19.476Z,17.27
2023-05-31T17:02:20.952Z,17.27
2023-05-31T17:07:22.564Z,17.03
2023-05-31T17:12:24.577Z,16.95
2023-05-31T17:17:26.328Z,16.78
2023-05-31T17:22:27.799Z,16.56
2023-05-31T17:27:29.247Z,16.44
2023-05-31T17:32:30.730Z,16.37
2023-05-31T17:37:32.216Z,16.19
2023-05-31T17:42:33.663Z,16.08
2023-05-31T17:47:35.156Z,16.01
2023-05-31T17:52:36.994Z,16.02
2023-05-31T17:57:38.513Z,15.83
2023-05-31T18:02:40.093Z,15.71
2023-05-31T18:07:41.625Z,15.51
2023-05-31T18:12:44.462Z,15.38
2023-05-31T18:17:47.817Z,15.23
2023-05-31T18:22:49.421Z,15.20
2023-05-31T18:27:50.877Z,15.15
2023-05-31T18:32:52.388Z,14.94
2023-05-31T18:37:53.938Z,14.67
2023-05-31T18:42:55.381Z,14.45
2023-05-31T18:47:56.921Z,14.37
2023-05-31T18:52:58.445Z,14.48
2023-05-31T18:57:59.912Z,14.35
2023-05-31T19:03:01.452Z,14.25
2023-05-31T19:08:02.982Z,14.16
2023-05-31T19:13:04.511Z,14.27
2023-05-31T19:18:17.706Z,14.17
2023-05-31T19:23:20.996Z,13.89
2023-05-31T19:28:22.617Z,13.99
2023-05-31T19:33:24.162Z,13.90
2023-05-31T19:38:25.612Z,13.69
2023-05-31T19:43:27.226Z,13.61
2023-05-31T19:48:28.756Z,13.60
2023-05-31T19:53:30.237Z,13.60
2023-05-31T19:58:31.757Z,13.55
2023-05-31T20:03:33.391Z,13.58
2023-05-31T20:08:35.129Z,13.66
2023-05-31T20:13:36.636Z,13.58
2023-05-31T20:18:38.118Z,13.45
2023-05-31T20:23:39.585Z,13.38
2023-05-31T20:28:41.163Z,13.39
2023-05-31T20:33:43.273Z,13.33
2023-05-31T20:38:44.799Z,13.29
2023-05-31T20:43:46.270Z,13.25
2023-05-31T20:48:47.749Z,13.20
2023-05-31T20:53:49.790Z,12.97
2023-05-31T20:58:51.592Z,13.09
2023-05-31T21:03:53.756Z,13.15
2023-05-31T21:08:55.417Z,13.18
2023-05-31T21:13:56.943Z,13.08
2023-05-31T21:18:58.428Z,13.07
2023-05-31T21:24:00.210Z,13.08
2023-05-31T21:29:01.736Z,12.98
2023-05-31T21:34:03.241Z,12.89
2023-05-31T21:39:04.763Z,12.72
2023-05-31T21:44:06.251Z,12.72
2023-05-31T21:49:07.941Z,12.72
2023-05-31T21:54:09.426Z,12.63
2023-05-31T21:59:10.953Z,12.51
2023-05-31T22:04:12.658Z,12.51
2023-05-31T22:09:14.231Z,12.52
2023-05-31T22:14:16.041Z,12.34
2023-05-31T22:19:18.339Z,12.51
2023-05-31T22:24:20.466Z,12.65
2023-05-31T22:29:22.149Z,12.53
2023-05-31T22:34:23.707Z,12.38
2023-05-31T22:39:25.170Z,12.40
2023-05-31T22:44:26.628Z,12.30
2023-05-31T22:49:28.100Z,12.30
2023-05-31T22:54:29.566Z,12.36
2023-05-31T22:59:31.135Z,12.39
2023-05-31T23:04:32.604Z,12.33
2023-05-31T23:09:34.060Z,12.35
2023-05-31T23:14:35.511Z,12.37
2023-05-31T23:19:37.022Z,12.21
2023-05-31T23:24:38.480Z,12.20
2023-05-31T23:29:39.952Z,12.16
2023-05-31T23:34:41.479Z,12.11
2023-05-31T23:39:42.946Z,12.23
2023-05-31T23:44:44.475Z,12.22
2023-05-31T23:49:45.931Z,12.16
2023-05-31T23:54:47.468Z,11.96
2023-05-31T23:59:49.062Z,12.00
